sensor_id;sensor_type;location;lat;lon;timestamp;P1;durP1;ratioP1;P2;durP2;ratioP2
11996;SDS011;6058;48.704;9.474;2023-05-19T00:01:41;3.60;;;2.30;;
11996;SDS011;6058;48.704;9.474;2023-05-19T00:04:09;5.93;;;2.60;;
11996;SDS011;6058;48.704;9.474;2023-05-19T00:06:38;4.13;;;2.50;;
11996;SDS011;6058;48.704;9.474;2023-05-19T00:09:07;6.33;;;2.47;;
11996;SDS011;6058;48.704;9.474;2023-05-19T00:11:35;5.40;;;2.50;;
11996;SDS011;6058;48.704;9.474;2023-05-19T00:14:04;2.83;;;1.97;;
11996;SDS011;6058;48.704;9.474;2023-05-19T00:16:33;5.90;;;2.53;;
11996;SDS011;6058;48.704;9.474;2023-05-19T00:19:01;2.10;;;1.90;;
11996;SDS011;6058;48.704;9.474;2023-05-19T00:21:29;5.53;;;2.60;;
11996;SDS011;6058;48.704;9.474;2023-05-19T00:23:57;6.30;;;2.73;;
11996;SDS011;6058;48.704;9.474;2023-05-19T00:26:24;4.40;;;2.23;;
11996;SDS011;6058;48.704;9.474;2023-05-19T00:28:52;5.13;;;2.53;;
11996;SDS011;6058;48.704;9.474;2023-05-19T00:31:19;3.50;;;2.47;;
11996;SDS011;6058;48.704;9.474;2023-05-19T00:33:47;2.87;;;2.30;;
11996;SDS011;6058;48.704;9.474;2023-05-19T00:36:16;4.50;;;2.30;;
11996;SDS011;6058;48.704;9.474;2023-05-19T00:38:43;2.43;;;2.23;;
11996;SDS011;6058;48.704;9.474;2023-05-19T00:41:10;8.03;;;2.40;;
11996;SDS011;6058;48.704;9.474;2023-05-19T00:43:37;4.07;;;2.20;;
11996;SDS011;6058;48.704;9.474;2023-05-19T00:46:04;3.27;;;2.27;;
11996;SDS011;6058;48.704;9.474;2023-05-19T00:48:31;5.57;;;2.23;;
11996;SDS011;6058;48.704;9.474;2023-05-19T00:51:00;4.47;;;2.13;;
11996;SDS011;6058;48.704;9.474;2023-05-19T00:53:28;4.47;;;1.93;;
11996;SDS011;6058;48.704;9.474;2023-05-19T00:55:56;4.93;;;2.40;;
11996;SDS011;6058;48.704;9.474;2023-05-19T00:58:24;2.53;;;2.07;;
11996;SDS011;6058;48.704;9.474;2023-05-19T01:00:53;3.30;;;2.20;;
11996;SDS011;6058;48.704;9.474;2023-05-19T01:03:26;2.83;;;2.10;;
11996;SDS011;6058;48.704;9.474;2023-05-19T01:05:54;3.13;;;2.57;;
11996;SDS011;6058;48.704;9.474;2023-05-19T01:08:27;3.73;;;2.50;;
11996;SDS011;6058;48.704;9.474;2023-05-19T01:10:55;2.53;;;2.33;;
11996;SDS011;6058;48.704;9.474;2023-05-19T01:13:22;2.43;;;2.20;;
11996;SDS011;6058;48.704;9.474;2023-05-19T01:15:55;4.07;;;2.50;;
11996;SDS011;6058;48.704;9.474;2023-05-19T01:18:24;3.93;;;2.10;;
11996;SDS011;6058;48.704;9.474;2023-05-19T01:20:57;1.80;;;1.70;;
11996;SDS011;6058;48.704;9.474;2023-05-19T01:23:31;4.27;;;2.00;;
11996;SDS011;6058;48.704;9.474;2023-05-19T01:29:06;3.80;;;2.13;;
11996;SDS011;6058;48.704;9.474;2023-05-19T01:31:35;4.77;;;2.27;;
11996;SDS011;6058;48.704;9.474;2023-05-19T01:36:38;3.77;;;2.07;;
11996;SDS011;6058;48.704;9.474;2023-05-19T01:42:27;2.20;;;2.00;;
11996;SDS011;6058;48.704;9.474;2023-05-19T01:45:19;3.83;;;1.93;;
11996;SDS011;6058;48.704;9.474;2023-05-19T01:58:34;6.03;;;2.43;;
11996;SDS011;6058;48.704;9.474;2023-05-19T02:00:14;5.30;;;2.30;;
11996;SDS011;6058;48.704;9.474;2023-05-19T02:03:07;2.60;;;1.97;;
11996;SDS011;6058;48.704;9.474;2023-05-19T02:12:19;2.73;;;1.93;;
11996;SDS011;6058;48.704;9.474;2023-05-19T02:15:12;2.67;;;2.27;;
11996;SDS011;6058;48.704;9.474;2023-05-19T02:20:08;2.67;;;2.30;;
11996;SDS011;6058;48.704;9.474;2023-05-19T02:21:00;4.27;;;2.30;;
11996;SDS011;6058;48.704;9.474;2023-05-19T02:24:03;4.27;;;2.20;;
11996;SDS011;6058;48.704;9.474;2023-05-19T02:26:55;2.37;;;2.10;;
11996;SDS011;6058;48.704;9.474;2023-05-19T02:32:22;3.07;;;1.90;;
11996;SDS011;6058;48.704;9.474;2023-05-19T02:35:09;2.83;;;2.03;;
11996;SDS011;6058;48.704;9.474;2023-05-19T02:37:52;5.57;;;2.23;;
11996;SDS011;6058;48.704;9.474;2023-05-19T02:41:15;2.50;;;2.20;;
11996;SDS011;6058;48.704;9.474;2023-05-19T02:44:00;2.63;;;2.27;;
11996;SDS011;6058;48.704;9.474;2023-05-19T02:46:54;5.33;;;2.30;;
11996;SDS011;6058;48.704;9.474;2023-05-19T02:55:09;4.90;;;2.17;;
11996;SDS011;6058;48.704;9.474;2023-05-19T03:13:55;4.13;;;2.20;;
11996;SDS011;6058;48.704;9.474;2023-05-19T03:16:32;3.40;;;1.90;;
11996;SDS011;6058;48.704;9.474;2023-05-19T03:19:18;5.07;;;2.00;;
11996;SDS011;6058;48.704;9.474;2023-05-19T03:22:23;4.87;;;2.17;;
11996;SDS011;6058;48.704;9.474;2023-05-19T03:25:08;2.47;;;2.20;;
11996;SDS011;6058;48.704;9.474;2023-05-19T03:39:51;5.20;;;2.37;;
11996;SDS011;6058;48.704;9.474;2023-05-19T03:42:39;5.00;;;2.23;;
11996;SDS011;6058;48.704;9.474;2023-05-19T03:45:13;3.83;;;2.13;;
11996;SDS011;6058;48.704;9.474;2023-05-19T03:54:42;4.17;;;2.50;;
11996;SDS011;6058;48.704;9.474;2023-05-19T04:00:43;4.40;;;2.10;;
11996;SDS011;6058;48.704;9.474;2023-05-19T04:03:56;6.33;;;2.50;;
11996;SDS011;6058;48.704;9.474;2023-05-19T04:06:32;3.70;;;1.90;;
11996;SDS011;6058;48.704;9.474;2023-05-19T04:09:29;4.57;;;2.13;;
11996;SDS011;6058;48.704;9.474;2023-05-19T04:12:24;4.30;;;2.00;;
11996;SDS011;6058;48.704;9.474;2023-05-19T04:15:16;3.77;;;2.83;;
11996;SDS011;6058;48.704;9.474;2023-05-19T04:18:07;2.83;;;2.03;;
11996;SDS011;6058;48.704;9.474;2023-05-19T04:21:11;3.47;;;1.83;;
11996;SDS011;6058;48.704;9.474;2023-05-19T04:23:57;2.30;;;2.13;;
11996;SDS011;6058;48.704;9.474;2023-05-19T04:26:52;4.23;;;2.30;;
11996;SDS011;6058;48.704;9.474;2023-05-19T04:29:35;3.77;;;2.37;;
11996;SDS011;6058;48.704;9.474;2023-05-19T04:38:45;3.43;;;2.27;;
11996;SDS011;6058;48.704;9.474;2023-05-19T04:41:28;3.07;;;2.10;;
11996;SDS011;6058;48.704;9.474;2023-05-19T04:44:13;4.33;;;2.00;;
11996;SDS011;6058;48.704;9.474;2023-05-19T04:47:08;6.20;;;2.27;;
11996;SDS011;6058;48.704;9.474;2023-05-19T04:50:10;3.13;;;2.50;;
11996;SDS011;6058;48.704;9.474;2023-05-19T04:53:05;4.33;;;2.33;;
11996;SDS011;6058;48.704;9.474;2023-05-19T05:07:47;7.63;;;2.50;;
11996;SDS011;6058;48.704;9.474;2023-05-19T05:26:30;6.10;;;2.37;;
11996;SDS011;6058;48.704;9.474;2023-05-19T05:29:18;5.33;;;2.37;;
11996;SDS011;6058;48.704;9.474;2023-05-19T05:38:05;3.77;;;2.00;;
11996;SDS011;6058;48.704;9.474;2023-05-19T05:41:10;3.43;;;2.03;;
11996;SDS011;6058;48.704;9.474;2023-05-19T05:44:24;5.00;;;2.17;;
11996;SDS011;6058;48.704;9.474;2023-05-19T05:53:22;5.60;;;2.73;;
11996;SDS011;6058;48.704;9.474;2023-05-19T06:05:21;3.17;;;2.00;;
11996;SDS011;6058;48.704;9.474;2023-05-19T06:08:12;2.67;;;2.07;;
11996;SDS011;6058;48.704;9.474;2023-05-19T06:10:52;2.67;;;2.33;;
11996;SDS011;6058;48.704;9.474;2023-05-19T06:13:26;2.17;;;1.93;;
11996;SDS011;6058;48.704;9.474;2023-05-19T06:43:16;4.47;;;2.33;;
11996;SDS011;6058;48.704;9.474;2023-05-19T06:49:51;4.20;;;2.73;;
11996;SDS011;6058;48.704;9.474;2023-05-19T07:02:05;3.03;;;2.03;;
11996;SDS011;6058;48.704;9.474;2023-05-19T07:04:50;4.73;;;2.60;;
11996;SDS011;6058;48.704;9.474;2023-05-19T07:08:05;4.77;;;2.37;;
11996;SDS011;6058;48.704;9.474;2023-05-19T07:11:18;6.23;;;2.40;;
11996;SDS011;6058;48.704;9.474;2023-05-19T07:13:47;7.13;;;2.63;;
11996;SDS011;6058;48.704;9.474;2023-05-19T07:16:58;6.97;;;3.10;;
11996;SDS011;6058;48.704;9.474;2023-05-19T07:20:07;7.53;;;2.90;;
11996;SDS011;6058;48.704;9.474;2023-05-19T07:47:33;5.77;;;2.60;;
11996;SDS011;6058;48.704;9.474;2023-05-19T07:50:46;1.87;;;1.77;;
11996;SDS011;6058;48.704;9.474;2023-05-19T08:52:26;9.87;;;2.93;;
11996;SDS011;6058;48.704;9.474;2023-05-19T09:01:03;4.60;;;2.17;;
11996;SDS011;6058;48.704;9.474;2023-05-19T10:01:16;2.77;;;2.17;;
11996;SDS011;6058;48.704;9.474;2023-05-19T10:04:05;4.20;;;2.30;;
11996;SDS011;6058;48.704;9.474;2023-05-19T12:46:20;5.00;;;2.70;;
11996;SDS011;6058;48.704;9.474;2023-05-19T12:53:47;7.27;;;3.07;;
11996;SDS011;6058;48.704;9.474;2023-05-19T14:42:08;7.13;;;4.13;;
11996;SDS011;6058;48.704;9.474;2023-05-19T14:44:57;9.87;;;4.97;;
11996;SDS011;6058;48.704;9.474;2023-05-19T14:56:59;5.43;;;2.47;;
11996;SDS011;6058;48.704;9.474;2023-05-19T15:00:01;3.43;;;2.77;;
11996;SDS011;6058;48.704;9.474;2023-05-19T15:02:51;6.77;;;2.90;;
11996;SDS011;6058;48.704;9.474;2023-05-19T15:06:23;4.73;;;2.73;;
11996;SDS011;6058;48.704;9.474;2023-05-19T15:30:48;4.33;;;2.50;;
11996;SDS011;6058;48.704;9.474;2023-05-19T15:33:39;4.00;;;2.40;;
11996;SDS011;6058;48.704;9.474;2023-05-19T15:47:45;4.63;;;2.40;;
11996;SDS011;6058;48.704;9.474;2023-05-19T15:50:12;3.50;;;2.00;;
11996;SDS011;6058;48.704;9.474;2023-05-19T15:52:39;4.07;;;2.17;;
11996;SDS011;6058;48.704;9.474;2023-05-19T15:55:07;4.43;;;2.33;;
11996;SDS011;6058;48.704;9.474;2023-05-19T15:57:34;3.80;;;2.10;;
11996;SDS011;6058;48.704;9.474;2023-05-19T16:00:01;3.13;;;2.07;;
11996;SDS011;6058;48.704;9.474;2023-05-19T16:02:28;2.43;;;1.90;;
11996;SDS011;6058;48.704;9.474;2023-05-19T16:04:57;2.97;;;2.27;;
11996;SDS011;6058;48.704;9.474;2023-05-19T16:07:24;3.77;;;2.00;;
11996;SDS011;6058;48.704;9.474;2023-05-19T16:09:51;5.33;;;2.93;;
11996;SDS011;6058;48.704;9.474;2023-05-19T16:12:18;3.63;;;1.90;;
11996;SDS011;6058;48.704;9.474;2023-05-19T16:14:46;2.63;;;2.33;;
11996;SDS011;6058;48.704;9.474;2023-05-19T16:17:13;7.20;;;2.27;;
11996;SDS011;6058;48.704;9.474;2023-05-19T16:19:40;3.93;;;2.20;;
11996;SDS011;6058;48.704;9.474;2023-05-19T16:22:08;2.47;;;2.13;;
11996;SDS011;6058;48.704;9.474;2023-05-19T16:24:35;5.03;;;2.17;;
11996;SDS011;6058;48.704;9.474;2023-05-19T16:27:03;4.37;;;1.80;;
11996;SDS011;6058;48.704;9.474;2023-05-19T16:29:30;1.90;;;1.80;;
11996;SDS011;6058;48.704;9.474;2023-05-19T16:31:57;3.90;;;2.10;;
11996;SDS011;6058;48.704;9.474;2023-05-19T16:34:24;5.17;;;2.03;;
11996;SDS011;6058;48.704;9.474;2023-05-19T16:36:51;5.30;;;1.90;;
11996;SDS011;6058;48.704;9.474;2023-05-19T16:39:20;4.13;;;2.43;;
11996;SDS011;6058;48.704;9.474;2023-05-19T16:41:47;3.37;;;2.20;;
11996;SDS011;6058;48.704;9.474;2023-05-19T16:44:14;2.73;;;2.10;;
11996;SDS011;6058;48.704;9.474;2023-05-19T16:46:42;4.07;;;2.20;;
11996;SDS011;6058;48.704;9.474;2023-05-19T16:49:09;4.57;;;1.93;;
11996;SDS011;6058;48.704;9.474;2023-05-19T16:51:36;3.47;;;1.97;;
11996;SDS011;6058;48.704;9.474;2023-05-19T16:54:03;2.10;;;1.90;;
11996;SDS011;6058;48.704;9.474;2023-05-19T16:56:32;4.30;;;2.20;;
11996;SDS011;6058;48.704;9.474;2023-05-19T16:58:59;3.03;;;1.90;;
11996;SDS011;6058;48.704;9.474;2023-05-19T17:01:26;2.87;;;1.90;;
11996;SDS011;6058;48.704;9.474;2023-05-19T17:03:53;4.67;;;2.23;;
11996;SDS011;6058;48.704;9.474;2023-05-19T17:06:20;3.97;;;1.93;;
11996;SDS011;6058;48.704;9.474;2023-05-19T17:08:47;2.30;;;2.10;;
11996;SDS011;6058;48.704;9.474;2023-05-19T17:11:14;2.20;;;2.00;;
11996;SDS011;6058;48.704;9.474;2023-05-19T17:13:43;3.70;;;2.07;;
11996;SDS011;6058;48.704;9.474;2023-05-19T17:16:10;2.67;;;1.70;;
11996;SDS011;6058;48.704;9.474;2023-05-19T17:18:37;5.50;;;1.73;;
11996;SDS011;6058;48.704;9.474;2023-05-19T17:21:04;3.33;;;2.07;;
11996;SDS011;6058;48.704;9.474;2023-05-19T17:23:31;3.13;;;1.80;;
11996;SDS011;6058;48.704;9.474;2023-05-19T17:25:58;3.63;;;1.80;;
11996;SDS011;6058;48.704;9.474;2023-05-19T17:28:25;3.33;;;2.00;;
11996;SDS011;6058;48.704;9.474;2023-05-19T17:30:54;3.40;;;1.87;;
11996;SDS011;6058;48.704;9.474;2023-05-19T17:33:21;6.43;;;2.10;;
11996;SDS011;6058;48.704;9.474;2023-05-19T17:35:48;2.33;;;2.03;;
11996;SDS011;6058;48.704;9.474;2023-05-19T17:38:15;2.23;;;1.60;;
11996;SDS011;6058;48.704;9.474;2023-05-19T17:40:42;2.70;;;1.83;;
11996;SDS011;6058;48.704;9.474;2023-05-19T17:43:09;4.17;;;1.90;;
11996;SDS011;6058;48.704;9.474;2023-05-19T17:45:36;3.00;;;2.10;;
11996;SDS011;6058;48.704;9.474;2023-05-19T17:48:05;3.90;;;1.70;;
11996;SDS011;6058;48.704;9.474;2023-05-19T17:50:32;2.30;;;1.93;;
11996;SDS011;6058;48.704;9.474;2023-05-19T17:52:59;4.17;;;2.27;;
11996;SDS011;6058;48.704;9.474;2023-05-19T17:55:27;3.30;;;2.20;;
11996;SDS011;6058;48.704;9.474;2023-05-19T17:57:55;5.33;;;2.23;;
11996;SDS011;6058;48.704;9.474;2023-05-19T18:00:22;6.23;;;2.30;;
11996;SDS011;6058;48.704;9.474;2023-05-19T18:02:50;4.30;;;2.20;;
11996;SDS011;6058;48.704;9.474;2023-05-19T18:05:19;7.13;;;2.07;;
11996;SDS011;6058;48.704;9.474;2023-05-19T18:07:46;3.87;;;2.20;;
11996;SDS011;6058;48.704;9.474;2023-05-19T18:10:13;3.20;;;1.90;;
11996;SDS011;6058;48.704;9.474;2023-05-19T18:12:41;2.63;;;2.00;;
11996;SDS011;6058;48.704;9.474;2023-05-19T18:15:08;2.60;;;1.80;;
11996;SDS011;6058;48.704;9.474;2023-05-19T18:17:35;3.20;;;2.10;;
11996;SDS011;6058;48.704;9.474;2023-05-19T18:20:03;2.50;;;2.00;;
11996;SDS011;6058;48.704;9.474;2023-05-19T18:22:32;3.33;;;2.60;;
11996;SDS011;6058;48.704;9.474;2023-05-19T18:24:59;3.90;;;2.43;;
11996;SDS011;6058;48.704;9.474;2023-05-19T18:27:26;4.07;;;2.10;;
11996;SDS011;6058;48.704;9.474;2023-05-19T18:29:53;3.47;;;2.20;;
11996;SDS011;6058;48.704;9.474;2023-05-19T18:32:20;2.70;;;2.07;;
11996;SDS011;6058;48.704;9.474;2023-05-19T18:34:47;2.60;;;2.13;;
11996;SDS011;6058;48.704;9.474;2023-05-19T18:37:15;4.00;;;2.57;;
11996;SDS011;6058;48.704;9.474;2023-05-19T18:39:44;5.50;;;3.10;;
11996;SDS011;6058;48.704;9.474;2023-05-19T18:42:11;3.17;;;2.60;;
11996;SDS011;6058;48.704;9.474;2023-05-19T18:44:38;4.13;;;2.50;;
11996;SDS011;6058;48.704;9.474;2023-05-19T18:47:06;2.77;;;2.10;;
11996;SDS011;6058;48.704;9.474;2023-05-19T18:49:45;3.33;;;2.37;;
11996;SDS011;6058;48.704;9.474;2023-05-19T18:52:12;4.33;;;2.40;;
11996;SDS011;6058;48.704;9.474;2023-05-19T18:54:39;5.87;;;2.30;;
11996;SDS011;6058;48.704;9.474;2023-05-19T18:57:09;4.03;;;2.10;;
11996;SDS011;6058;48.704;9.474;2023-05-19T18:59:36;3.10;;;2.37;;
11996;SDS011;6058;48.704;9.474;2023-05-19T19:02:03;2.97;;;2.10;;
11996;SDS011;6058;48.704;9.474;2023-05-19T19:04:31;5.03;;;1.90;;
11996;SDS011;6058;48.704;9.474;2023-05-19T19:06:58;3.73;;;2.43;;
11996;SDS011;6058;48.704;9.474;2023-05-19T19:09:25;2.53;;;2.07;;
11996;SDS011;6058;48.704;9.474;2023-05-19T19:11:52;3.60;;;2.50;;
11996;SDS011;6058;48.704;9.474;2023-05-19T19:14:21;3.07;;;2.10;;
11996;SDS011;6058;48.704;9.474;2023-05-19T19:16:48;2.87;;;2.27;;
11996;SDS011;6058;48.704;9.474;2023-05-19T19:19:15;2.50;;;2.20;;
11996;SDS011;6058;48.704;9.474;2023-05-19T19:21:45;3.57;;;2.37;;
11996;SDS011;6058;48.704;9.474;2023-05-19T19:24:12;2.83;;;2.20;;
11996;SDS011;6058;48.704;9.474;2023-05-19T19:26:40;2.40;;;2.20;;
11996;SDS011;6058;48.704;9.474;2023-05-19T19:29:07;2.80;;;2.20;;
11996;SDS011;6058;48.704;9.474;2023-05-19T19:31:35;3.50;;;2.30;;
11996;SDS011;6058;48.704;9.474;2023-05-19T19:34:02;3.00;;;2.13;;
11996;SDS011;6058;48.704;9.474;2023-05-19T19:36:33;4.13;;;2.43;;
11996;SDS011;6058;48.704;9.474;2023-05-19T19:39:00;3.07;;;2.20;;
11996;SDS011;6058;48.704;9.474;2023-05-19T19:41:27;7.27;;;3.00;;
11996;SDS011;6058;48.704;9.474;2023-05-19T19:43:54;4.07;;;2.80;;
11996;SDS011;6058;48.704;9.474;2023-05-19T19:46:21;4.97;;;3.50;;
11996;SDS011;6058;48.704;9.474;2023-05-19T19:48:49;3.40;;;2.80;;
11996;SDS011;6058;48.704;9.474;2023-05-19T19:51:17;2.50;;;2.17;;
11996;SDS011;6058;48.704;9.474;2023-05-19T19:53:44;3.87;;;2.70;;
11996;SDS011;6058;48.704;9.474;2023-05-19T19:56:11;6.60;;;3.00;;
11996;SDS011;6058;48.704;9.474;2023-05-19T19:58:44;4.47;;;3.20;;
11996;SDS011;6058;48.704;9.474;2023-05-19T20:01:17;3.47;;;3.00;;
11996;SDS011;6058;48.704;9.474;2023-05-19T20:03:47;4.50;;;2.37;;
11996;SDS011;6058;48.704;9.474;2023-05-19T20:06:15;6.00;;;3.40;;
11996;SDS011;6058;48.704;9.474;2023-05-19T20:08:42;7.97;;;2.47;;
11996;SDS011;6058;48.704;9.474;2023-05-19T20:11:09;3.10;;;2.60;;
11996;SDS011;6058;48.704;9.474;2023-05-19T20:13:37;4.70;;;3.13;;
11996;SDS011;6058;48.704;9.474;2023-05-19T20:16:04;13.10;;;11.70;;
11996;SDS011;6058;48.704;9.474;2023-05-19T20:18:31;8.50;;;7.53;;
11996;SDS011;6058;48.704;9.474;2023-05-19T20:21:00;4.60;;;3.93;;
11996;SDS011;6058;48.704;9.474;2023-05-19T20:23:29;7.27;;;5.33;;
11996;SDS011;6058;48.704;9.474;2023-05-19T20:25:56;4.77;;;3.00;;
11996;SDS011;6058;48.704;9.474;2023-05-19T20:28:23;3.90;;;3.30;;
11996;SDS011;6058;48.704;9.474;2023-05-19T20:30:50;3.83;;;3.30;;
11996;SDS011;6058;48.704;9.474;2023-05-19T20:33:17;3.87;;;2.83;;
11996;SDS011;6058;48.704;9.474;2023-05-19T20:35:44;6.73;;;3.53;;
11996;SDS011;6058;48.704;9.474;2023-05-19T20:38:11;3.13;;;2.77;;
11996;SDS011;6058;48.704;9.474;2023-05-19T20:40:39;3.77;;;3.13;;
11996;SDS011;6058;48.704;9.474;2023-05-19T20:43:06;4.23;;;3.73;;
11996;SDS011;6058;48.704;9.474;2023-05-19T20:45:34;8.90;;;4.30;;
11996;SDS011;6058;48.704;9.474;2023-05-19T20:48:01;6.77;;;3.77;;
11996;SDS011;6058;48.704;9.474;2023-05-19T20:50:28;4.47;;;3.57;;
11996;SDS011;6058;48.704;9.474;2023-05-19T20:52:55;6.07;;;3.20;;
11996;SDS011;6058;48.704;9.474;2023-05-19T20:55:23;4.53;;;3.50;;
11996;SDS011;6058;48.704;9.474;2023-05-19T20:57:51;6.83;;;3.70;;
11996;SDS011;6058;48.704;9.474;2023-05-19T21:00:18;6.23;;;4.33;;
11996;SDS011;6058;48.704;9.474;2023-05-19T21:02:45;3.50;;;3.17;;
11996;SDS011;6058;48.704;9.474;2023-05-19T21:05:12;7.47;;;4.17;;
11996;SDS011;6058;48.704;9.474;2023-05-19T21:07:40;4.33;;;3.13;;
11996;SDS011;6058;48.704;9.474;2023-05-19T21:10:07;5.47;;;3.47;;
11996;SDS011;6058;48.704;9.474;2023-05-19T21:12:36;4.50;;;3.20;;
11996;SDS011;6058;48.704;9.474;2023-05-19T21:15:05;3.40;;;2.90;;
11996;SDS011;6058;48.704;9.474;2023-05-19T21:17:32;4.07;;;3.10;;
11996;SDS011;6058;48.704;9.474;2023-05-19T21:19:59;4.33;;;3.27;;
11996;SDS011;6058;48.704;9.474;2023-05-19T21:22:27;4.03;;;3.10;;
11996;SDS011;6058;48.704;9.474;2023-05-19T21:24:54;6.20;;;4.40;;
11996;SDS011;6058;48.704;9.474;2023-05-19T21:27:22;6.07;;;3.77;;
11996;SDS011;6058;48.704;9.474;2023-05-19T21:29:49;5.93;;;3.30;;
11996;SDS011;6058;48.704;9.474;2023-05-19T21:32:19;4.43;;;3.00;;
11996;SDS011;6058;48.704;9.474;2023-05-19T21:34:46;3.80;;;3.10;;
11996;SDS011;6058;48.704;9.474;2023-05-19T21:37:13;4.43;;;3.60;;
11996;SDS011;6058;48.704;9.474;2023-05-19T21:39:44;4.67;;;3.60;;
11996;SDS011;6058;48.704;9.474;2023-05-19T21:42:50;3.53;;;3.20;;
11996;SDS011;6058;48.704;9.474;2023-05-19T21:45:19;6.90;;;3.50;;
11996;SDS011;6058;48.704;9.474;2023-05-19T21:47:47;7.27;;;4.07;;
11996;SDS011;6058;48.704;9.474;2023-05-19T21:50:14;4.10;;;3.40;;
11996;SDS011;6058;48.704;9.474;2023-05-19T21:58:57;4.33;;;2.90;;
11996;SDS011;6058;48.704;9.474;2023-05-19T22:17:25;4.83;;;3.53;;
11996;SDS011;6058;48.704;9.474;2023-05-19T22:20:22;5.37;;;3.63;;
11996;SDS011;6058;48.704;9.474;2023-05-19T22:26:51;5.30;;;3.43;;
11996;SDS011;6058;48.704;9.474;2023-05-19T23:06:43;5.13;;;2.93;;
11996;SDS011;6058;48.704;9.474;2023-05-19T23:12:38;3.13;;;2.80;;
